Time;durP1;ratioP1;P1;durP2;ratioP2;P2;SDS_P1;SDS_P2;PMS_P1;PMS_P2;Temp;Humidity;BMP_temperature;BMP_pressure;BME280_temperature;BME280_humidity;BME280_pressure;Samples;Min_cycle;Max_cycle;Signal;HPM_P1;HPM_P2
2021/11/10 00:02:05;;;;;;;8.50;6.70;;;8.00;99.90;;;;;;4995464;28;20216;-49
2021/11/10 00:04:31;;;;;;;10.10;8.30;;;7.80;99.90;;;;;;5002262;28;20464;-48
2021/11/10 00:06:57;;;;;;;15.17;8.77;;;8.00;99.90;;;;;;4983647;28;20559;-48
2021/11/10 00:09:22;;;;;;;12.20;8.50;;;7.80;99.90;;;;;;5000730;28;20233;-46
2021/11/10 00:11:48;;;;;;;11.30;7.77;;;7.80;99.90;;;;;;4997104;28;20216;-45
2021/11/10 00:14:14;;;;;;;10.00;6.90;;;7.90;99.90;;;;;;4993610;28;20589;-49
2021/11/10 00:16:40;;;;;;;8.10;7.10;;;7.90;99.90;;;;;;4999268;28;20196;-47
2021/11/10 00:19:06;;;;;;;8.97;6.73;;;7.80;99.90;;;;;;4996708;28;20292;-51
2021/11/10 00:21:32;;;;;;;10.40;6.90;;;7.60;99.90;;;;;;4999513;28;20807;-49
2021/11/10 00:23:58;;;;;;;13.30;7.73;;;7.70;99.90;;;;;;4995547;28;20475;-50
2021/11/10 00:26:25;;;;;;;10.10;7.30;;;7.80;99.90;;;;;;5000226;28;20471;-49
2021/11/10 00:28:51;;;;;;;9.50;7.00;;;8.00;99.90;;;;;;4999794;28;20218;-47
2021/11/10 00:31:18;;;;;;;14.47;8.20;;;8.10;99.90;;;;;;4997782;28;20450;-49
2021/11/10 00:33:44;;;;;;;10.60;7.20;;;8.10;99.90;;;;;;4998268;28;20551;-45
2021/11/10 00:36:10;;;;;;;9.87;6.87;;;7.80;99.90;;;;;;4995291;28;20523;-48
2021/11/10 00:38:37;;;;;;;8.10;6.43;;;7.70;99.90;;;;;;5000877;28;20856;-48
2021/11/10 00:41:03;;;;;;;10.80;7.00;;;7.40;99.90;;;;;;4999845;28;20229;-47
2021/11/10 00:43:29;;;;;;;10.03;7.17;;;7.20;99.90;;;;;;4993944;28;20468;-48
2021/11/10 00:45:54;;;;;;;10.00;7.73;;;7.30;99.90;;;;;;4998505;28;20478;-47
2021/11/10 00:48:20;;;;;;;8.97;7.77;;;7.50;99.90;;;;;;4996933;28;20242;-47
2021/11/10 00:50:45;;;;;;;12.07;6.70;;;7.50;99.90;;;;;;4994101;28;20194;-47
2021/11/10 00:53:11;;;;;;;12.70;8.00;;;7.50;99.90;;;;;;4998890;28;20686;-50
2021/11/10 00:55:40;;;;;;;11.00;7.67;;;7.40;99.90;;;;;;4998357;28;20622;-48
2021/11/10 00:58:06;;;;;;;8.13;6.53;;;7.40;99.90;;;;;;4998871;28;20439;-46
2021/11/10 01:00:32;;;;;;;11.93;6.80;;;7.60;99.90;;;;;;4996707;28;20454;-49
2021/11/10 01:02:58;;;;;;;9.40;6.90;;;7.60;99.90;;;;;;4998695;28;20440;-47
2021/11/10 01:05:24;;;;;;;10.90;6.50;;;7.60;99.90;;;;;;4995608;28;20480;-48
2021/11/10 01:07:50;;;;;;;9.07;6.37;;;7.30;99.90;;;;;;4995826;28;20196;-47
2021/11/10 01:10:16;;;;;;;9.37;6.47;;;7.30;99.90;;;;;;5001045;28;20440;-51
2021/11/10 01:12:42;;;;;;;11.20;6.70;;;7.10;99.90;;;;;;4995740;28;20511;-51
2021/11/10 01:15:09;;;;;;;9.93;6.50;;;7.30;99.90;;;;;;4994675;28;20456;-49
2021/11/10 01:17:36;;;;;;;7.23;6.50;;;7.30;99.90;;;;;;5000460;28;20193;-47
2021/11/10 01:20:04;;;;;;;8.37;6.80;;;6.90;99.90;;;;;;4998281;28;20929;-46
2021/11/10 01:22:29;;;;;;;10.03;6.90;;;6.50;99.90;;;;;;5003399;28;20505;-49
2021/11/10 01:24:55;;;;;;;10.20;7.20;;;6.40;99.90;;;;;;4998859;28;20544;-52
2021/11/10 01:27:21;;;;;;;9.87;6.57;;;6.20;99.90;;;;;;5001886;28;20190;-51
2021/11/10 01:29:46;;;;;;;12.80;7.13;;;6.00;99.90;;;;;;4997354;28;20194;-51
2021/11/10 01:32:12;;;;;;;9.47;6.53;;;5.90;99.90;;;;;;4995929;28;20193;-45
2021/11/10 01:34:38;;;;;;;10.83;6.40;;;5.80;99.90;;;;;;4996135;28;20255;-46
2021/11/10 01:37:04;;;;;;;7.63;6.10;;;5.70;99.90;;;;;;4999586;28;20438;-48
2021/11/10 01:39:30;;;;;;;12.03;6.83;;;5.70;99.90;;;;;;4994641;28;20202;-50
2021/11/10 01:42:02;;;;;;;10.80;7.07;;;5.60;99.90;;;;;;5003100;28;20469;-48
2021/11/10 01:44:32;;;;;;;11.20;6.70;;;5.80;99.90;;;;;;4996171;28;20448;-49
2021/11/10 01:46:59;;;;;;;13.37;7.00;;;6.10;99.90;;;;;;4999258;28;20526;-48
2021/11/10 01:49:25;;;;;;;9.57;7.07;;;5.80;99.90;;;;;;4998146;28;20867;-49
2021/11/10 01:51:53;;;;;;;8.30;6.40;;;6.00;99.90;;;;;;5004664;28;20926;-47
2021/11/10 01:54:22;;;;;;;9.10;6.93;;;6.10;99.90;;;;;;5004887;28;20921;-52
2021/11/10 01:56:49;;;;;;;9.13;6.80;;;6.00;99.90;;;;;;4998382;28;20456;-48
2021/11/10 01:59:29;;;;;;;11.50;7.70;;;5.90;99.90;;;;;;5003841;28;20531;-45
2021/11/10 02:01:56;;;;;;;9.80;6.47;;;5.80;99.90;;;;;;4998515;28;20437;-52
2021/11/10 02:04:21;;;;;;;14.07;7.50;;;5.60;99.90;;;;;;5002051;28;20953;-47
2021/11/10 02:06:47;;;;;;;11.67;6.70;;;5.60;99.90;;;;;;5000892;28;20484;-48
2021/11/10 02:09:13;;;;;;;9.93;7.43;;;5.70;99.90;;;;;;5000521;28;20190;-48
2021/11/10 02:11:39;;;;;;;14.47;6.83;;;5.50;99.90;;;;;;5000179;28;20197;-50
2021/11/10 02:14:06;;;;;;;12.10;7.90;;;5.60;99.90;;;;;;5013992;28;20471;-49
2021/11/10 02:16:36;;;;;;;9.07;7.23;;;5.50;99.90;;;;;;5001486;28;20431;-52
2021/11/10 02:19:05;;;;;;;9.97;8.03;;;5.60;99.90;;;;;;4999972;28;20434;-46
2021/11/10 02:21:31;;;;;;;9.10;7.60;;;5.50;99.90;;;;;;5009107;28;20448;-49
2021/11/10 02:23:59;;;;;;;10.90;8.23;;;5.50;99.90;;;;;;5003068;28;20465;-46
2021/11/10 02:26:25;;;;;;;11.33;8.80;;;5.60;99.90;;;;;;5005323;28;20498;-48
2021/11/10 02:28:51;;;;;;;14.67;8.13;;;5.50;99.90;;;;;;5000742;28;20482;-46
2021/11/10 02:31:16;;;;;;;10.23;7.70;;;5.50;99.90;;;;;;5004384;28;20472;-49
2021/11/10 02:33:43;;;;;;;12.03;8.17;;;5.50;99.90;;;;;;4998030;28;20217;-46
2021/11/10 02:36:09;;;;;;;12.77;8.57;;;5.70;99.90;;;;;;5001725;28;20197;-47
2021/11/10 02:38:35;;;;;;;10.30;7.80;;;5.60;99.90;;;;;;4999680;28;20454;-53
2021/11/10 02:41:02;;;;;;;10.60;7.57;;;5.50;99.90;;;;;;4982994;28;20204;-51
2021/11/10 02:43:28;;;;;;;10.60;7.50;;;5.40;99.90;;;;;;5007117;28;20521;-50
2021/11/10 02:45:54;;;;;;;15.33;8.80;;;5.30;99.90;;;;;;4999676;28;20716;-47
2021/11/10 02:48:20;;;;;;;10.23;7.80;;;5.50;99.90;;;;;;5005108;28;20584;-50
2021/11/10 02:50:46;;;;;;;14.77;7.67;;;5.20;99.90;;;;;;5003479;28;20450;-48
2021/11/10 02:53:12;;;;;;;12.60;8.47;;;5.10;99.90;;;;;;5000896;28;20428;-47
2021/11/10 02:55:38;;;;;;;17.77;8.20;;;5.20;99.90;;;;;;4999927;28;20192;-47
2021/11/10 02:58:04;;;;;;;10.50;8.37;;;5.50;99.90;;;;;;5000575;28;20197;-50
2021/11/10 03:00:30;;;;;;;11.23;8.57;;;5.60;99.90;;;;;;5004550;28;20850;-49
2021/11/10 03:02:56;;;;;;;10.53;7.60;;;5.30;99.90;;;;;;5002112;28;20449;-48
2021/11/10 03:05:23;;;;;;;19.93;8.83;;;5.10;99.90;;;;;;5001749;28;20483;-49
2021/11/10 03:07:49;;;;;;;12.30;7.63;;;4.90;99.90;;;;;;5002117;28;20437;-48
2021/11/10 03:10:15;;;;;;;10.83;8.23;;;4.80;99.90;;;;;;5001071;28;20454;-47
2021/11/10 03:12:41;;;;;;;13.03;7.80;;;4.80;99.90;;;;;;5001460;28;20486;-46
2021/11/10 03:15:08;;;;;;;10.20;7.67;;;5.10;99.90;;;;;;5006339;28;20456;-47
2021/11/10 03:17:35;;;;;;;9.30;7.80;;;5.00;99.90;;;;;;5000781;28;20441;-48
2021/11/10 03:20:03;;;;;;;15.03;9.10;;;4.90;99.90;;;;;;5000365;28;20447;-47
2021/11/10 03:22:29;;;;;;;10.80;7.57;;;4.90;99.90;;;;;;5001493;28;20439;-48
2021/11/10 03:24:54;;;;;;;13.20;7.57;;;5.30;99.90;;;;;;4999166;28;20519;-48
2021/11/10 03:27:20;;;;;;;11.90;7.93;;;5.50;99.90;;;;;;5006823;28;20193;-50
2021/11/10 03:29:50;;;;;;;11.27;7.60;;;5.60;99.90;;;;;;5002132;28;20189;-47
2021/11/10 03:32:17;;;;;;;10.00;7.37;;;5.40;99.90;;;;;;4997514;28;20660;-47
2021/11/10 03:34:44;;;;;;;10.53;7.33;;;5.30;99.90;;;;;;5002520;28;20555;-46
2021/11/10 03:37:10;;;;;;;9.67;6.87;;;5.10;99.90;;;;;;5000203;28;20455;-49
2021/11/10 03:39:36;;;;;;;18.33;7.73;;;5.10;99.90;;;;;;4995799;28;20545;-49
2021/11/10 03:42:02;;;;;;;11.00;7.00;;;5.30;99.90;;;;;;5005166;28;20242;-46
2021/11/10 03:44:28;;;;;;;12.20;7.27;;;5.10;99.90;;;;;;5000337;28;20212;-51
2021/11/10 03:46:53;;;;;;;11.77;6.90;;;5.00;99.90;;;;;;4998875;28;20472;-49
2021/11/10 03:49:20;;;;;;;9.27;7.57;;;4.80;99.90;;;;;;5005010;28;20193;-50
2021/11/10 03:51:46;;;;;;;10.07;6.80;;;4.70;99.90;;;;;;4998932;28;20185;-46
2021/11/10 03:54:12;;;;;;;9.20;6.80;;;4.70;99.90;;;;;;5000789;28;20456;-50
2021/11/10 03:56:38;;;;;;;9.50;7.60;;;4.80;99.90;;;;;;5001606;28;20857;-47
2021/11/10 03:59:04;;;;;;;11.97;7.43;;;5.00;99.90;;;;;;4996962;28;20192;-51
2021/11/10 04:01:30;;;;;;;12.10;8.13;;;5.00;99.90;;;;;;4999267;28;21283;-48
2021/11/10 04:03:55;;;;;;;11.00;7.20;;;5.10;99.90;;;;;;4999332;28;20279;-49
2021/11/10 04:06:21;;;;;;;11.70;8.30;;;5.00;99.90;;;;;;5000316;28;20260;-49
2021/11/10 04:08:46;;;;;;;13.80;7.27;;;5.00;99.90;;;;;;5002646;28;20283;-48
2021/11/10 04:11:12;;;;;;;11.07;7.47;;;5.00;99.90;;;;;;4999822;28;20836;-51
2021/11/10 04:13:37;;;;;;;11.53;7.17;;;4.90;99.90;;;;;;5001018;28;20212;-53
2021/11/10 04:16:03;;;;;;;12.23;7.10;;;4.70;99.90;;;;;;5002607;28;20188;-48
2021/11/10 04:18:33;;;;;;;10.33;6.43;;;5.00;99.90;;;;;;4996755;28;20197;-51
2021/11/10 04:21:01;;;;;;;11.63;7.13;;;5.10;99.90;;;;;;5001088;28;20225;-52
2021/11/10 04:23:29;;;;;;;10.40;7.57;;;5.00;99.90;;;;;;5002507;28;20953;-49
2021/11/10 04:25:59;;;;;;;7.47;6.20;;;4.90;99.90;;;;;;4980399;28;20480;-49
2021/11/10 04:28:25;;;;;;;11.00;7.10;;;4.90;99.90;;;;;;5002791;28;20475;-48
2021/11/10 04:30:53;;;;;;;8.77;6.50;;;4.90;99.90;;;;;;5002083;28;20450;-48
2021/11/10 04:33:20;;;;;;;8.47;6.70;;;4.80;99.90;;;;;;4999933;28;20451;-49
2021/11/10 04:35:46;;;;;;;8.07;6.70;;;4.70;99.90;;;;;;5002766;28;20472;-46
2021/11/10 04:38:12;;;;;;;9.20;7.30;;;5.10;99.90;;;;;;4999268;28;20443;-48
2021/11/10 04:40:38;;;;;;;10.70;7.30;;;5.10;99.90;;;;;;4996521;28;20462;-48
2021/11/10 04:43:04;;;;;;;13.30;6.60;;;5.00;99.90;;;;;;4995847;28;20185;-47
2021/11/10 04:45:33;;;;;;;8.33;6.03;;;5.00;99.90;;;;;;4999855;28;20601;-48
2021/11/10 04:47:59;;;;;;;11.97;7.63;;;5.00;99.90;;;;;;4999630;28;20439;-51
2021/11/10 04:50:24;;;;;;;7.60;6.73;;;5.00;99.90;;;;;;4999942;28;20448;-46
2021/11/10 04:52:50;;;;;;;9.93;6.70;;;5.20;99.90;;;;;;5001394;28;20519;-47
2021/11/10 04:55:16;;;;;;;8.70;7.27;;;5.30;99.90;;;;;;4999991;28;20274;-46
2021/11/10 04:57:42;;;;;;;11.10;7.33;;;5.30;99.90;;;;;;4999758;28;20456;-49
2021/11/10 05:00:10;;;;;;;17.47;6.90;;;5.50;99.90;;;;;;5015824;22;20528;-47
2021/11/10 05:02:37;;;;;;;7.00;5.97;;;5.20;99.90;;;;;;5003472;28;20185;-48
2021/11/10 05:05:03;;;;;;;9.70;6.50;;;5.20;99.90;;;;;;5001726;28;20445;-50
2021/11/10 05:07:29;;;;;;;13.17;8.50;;;5.20;99.90;;;;;;5003175;28;20432;-49
2021/11/10 05:09:55;;;;;;;15.23;7.83;;;5.10;99.90;;;;;;4999668;28;20579;-48
2021/11/10 05:12:21;;;;;;;8.70;7.27;;;5.20;99.90;;;;;;4999650;28;20189;-46
2021/11/10 05:14:47;;;;;;;13.20;7.03;;;5.30;99.90;;;;;;4999205;28;20198;-47
2021/11/10 05:17:13;;;;;;;8.50;7.13;;;5.50;99.90;;;;;;5004405;28;20464;-47
2021/11/10 05:19:39;;;;;;;11.00;6.80;;;5.70;99.90;;;;;;5001846;28;20503;-47
2021/11/10 05:22:05;;;;;;;8.40;6.50;;;5.60;99.90;;;;;;5001901;28;20185;-51
2021/11/10 05:24:30;;;;;;;9.37;6.40;;;5.30;99.90;;;;;;5002164;28;20299;-47
2021/11/10 05:26:56;;;;;;;9.50;6.60;;;5.50;99.90;;;;;;5002603;28;20556;-49
2021/11/10 05:29:22;;;;;;;11.43;8.00;;;5.50;99.90;;;;;;5001353;28;20557;-47
2021/11/10 05:31:48;;;;;;;10.07;7.17;;;5.50;99.90;;;;;;5001874;28;20440;-47
2021/11/10 05:34:15;;;;;;;12.97;7.50;;;5.60;99.90;;;;;;4999373;28;20510;-48
2021/11/10 05:36:41;;;;;;;10.10;7.80;;;5.60;99.90;;;;;;4999886;28;20196;-47
2021/11/10 05:39:09;;;;;;;11.47;6.97;;;5.50;99.90;;;;;;5001553;28;20676;-50
2021/11/10 05:41:35;;;;;;;8.57;6.67;;;5.30;99.90;;;;;;5000049;28;21652;-48
2021/11/10 05:44:00;;;;;;;7.60;6.73;;;5.40;99.90;;;;;;5003452;28;20474;-47
2021/11/10 05:46:27;;;;;;;11.90;7.70;;;5.40;99.90;;;;;;5000457;28;20542;-48
2021/11/10 05:48:52;;;;;;;9.37;6.23;;;5.50;99.90;;;;;;4999834;28;20185;-49
2021/11/10 05:51:18;;;;;;;11.17;7.37;;;5.50;99.90;;;;;;4999267;28;20456;-47
2021/11/10 05:53:45;;;;;;;9.57;7.07;;;5.40;99.90;;;;;;4996458;28;20264;-47
2021/11/10 05:56:33;;;;;;;9.30;7.03;;;5.50;99.90;;;;;;5000836;28;20817;-47
2021/11/10 05:58:58;;;;;;;9.30;6.57;;;5.40;99.90;;;;;;4996943;28;20443;-47
2021/11/10 06:01:28;;;;;;;11.13;6.90;;;5.60;99.90;;;;;;4998213;28;20467;-47
2021/11/10 06:03:54;;;;;;;14.90;8.00;;;5.80;99.90;;;;;;4995809;28;21168;-48
2021/11/10 06:06:21;;;;;;;12.43;7.77;;;5.70;99.90;;;;;;5000398;28;20566;-48
2021/11/10 06:08:47;;;;;;;10.93;6.37;;;5.60;99.90;;;;;;4997498;28;20441;-47
2021/11/10 06:11:12;;;;;;;11.67;7.33;;;5.50;99.90;;;;;;4996685;28;20486;-50
2021/11/10 06:13:39;;;;;;;10.80;7.20;;;5.50;99.90;;;;;;4997243;28;20191;-48
2021/11/10 06:16:06;;;;;;;11.90;7.10;;;5.50;99.90;;;;;;4998825;28;20432;-47
2021/11/10 06:18:32;;;;;;;13.37;7.73;;;5.60;99.90;;;;;;4998406;28;20832;-48
2021/11/10 06:20:59;;;;;;;11.00;7.57;;;5.60;99.90;;;;;;4995621;28;20871;-49
2021/11/10 06:23:25;;;;;;;12.27;7.40;;;5.70;99.90;;;;;;5003095;28;20448;-48
2021/11/10 06:25:51;;;;;;;12.77;7.30;;;5.90;99.90;;;;;;5000940;28;21018;-50
2021/11/10 06:28:16;;;;;;;9.93;6.80;;;6.00;99.90;;;;;;4997228;28;20197;-47
2021/11/10 06:30:42;;;;;;;10.30;7.13;;;6.10;99.90;;;;;;5002178;28;20217;-48
2021/11/10 06:33:08;;;;;;;8.30;6.83;;;6.10;99.90;;;;;;4998097;28;20239;-48
2021/11/10 06:35:34;;;;;;;13.07;8.00;;;6.00;99.90;;;;;;5002343;28;20193;-49
2021/11/10 06:38:00;;;;;;;10.53;7.37;;;5.90;99.90;;;;;;5008478;28;20444;-50
2021/11/10 06:40:26;;;;;;;11.60;8.03;;;5.80;99.90;;;;;;5005128;28;20295;-47
2021/11/10 06:42:51;;;;;;;11.77;7.37;;;5.60;99.90;;;;;;5003784;28;20561;-50
2021/11/10 06:45:17;;;;;;;12.50;9.00;;;5.40;99.90;;;;;;4999632;28;20475;-53
2021/11/10 06:47:43;;;;;;;8.60;6.77;;;5.60;99.90;;;;;;5001285;28;20193;-49
2021/11/10 06:50:09;;;;;;;11.73;7.03;;;5.70;99.90;;;;;;4999933;28;20197;-52
2021/11/10 06:52:36;;;;;;;8.73;6.57;;;5.80;99.90;;;;;;4997732;28;20237;-51
2021/11/10 06:55:03;;;;;;;14.57;6.97;;;6.00;99.90;;;;;;4997014;28;20564;-51
2021/11/10 06:57:30;;;;;;;10.30;6.80;;;6.20;99.90;;;;;;4996460;28;20426;-50
2021/11/10 06:59:57;;;;;;;11.93;7.67;;;6.40;99.90;;;;;;4991539;28;20549;-50
2021/11/10 07:02:23;;;;;;;8.93;7.00;;;6.50;99.90;;;;;;4997161;28;20487;-47
2021/11/10 07:04:48;;;;;;;10.23;7.97;;;6.50;99.90;;;;;;4998487;28;20551;-51
2021/11/10 07:07:14;;;;;;;10.37;8.17;;;6.60;99.90;;;;;;4995824;28;20534;-49
2021/11/10 07:09:40;;;;;;;13.60;8.70;;;6.70;99.90;;;;;;4996220;28;20197;-53
2021/11/10 07:12:06;;;;;;;13.93;8.07;;;6.70;99.90;;;;;;4998456;28;20203;-50
2021/11/10 07:14:32;;;;;;;10.67;7.27;;;6.70;99.90;;;;;;4990298;28;20193;-50
2021/11/10 07:16:58;;;;;;;10.77;7.03;;;6.70;99.90;;;;;;4993431;28;20969;-50
2021/11/10 07:19:23;;;;;;;12.83;7.17;;;6.70;99.90;;;;;;4993290;28;20522;-50
2021/11/10 07:21:49;;;;;;;11.20;7.67;;;6.80;99.90;;;;;;4995461;28;20201;-49
2021/11/10 07:24:15;;;;;;;12.80;8.20;;;6.70;99.90;;;;;;4990136;28;20198;-51
2021/11/10 07:26:41;;;;;;;9.90;7.30;;;6.70;99.90;;;;;;4995942;28;20403;-51
2021/11/10 07:29:07;;;;;;;10.90;8.07;;;6.60;99.90;;;;;;4994802;28;20452;-50
2021/11/10 07:31:33;;;;;;;10.33;8.07;;;6.60;99.90;;;;;;4995970;28;20456;-50
2021/11/10 07:33:59;;;;;;;11.50;7.63;;;6.40;99.90;;;;;;4997386;28;20223;-49
2021/11/10 07:36:26;;;;;;;13.23;7.53;;;6.40;99.90;;;;;;4990182;28;20440;-49
2021/11/10 07:38:55;;;;;;;12.40;8.10;;;6.40;99.90;;;;;;4998436;28;20508;-49
2021/11/10 07:41:20;;;;;;;10.80;7.40;;;6.40;99.90;;;;;;4995423;28;20510;-50
2021/11/10 07:43:51;;;;;;;9.63;7.53;;;6.60;99.90;;;;;;4995892;28;20959;-50
2021/11/10 07:46:18;;;;;;;10.97;8.00;;;6.70;99.90;;;;;;4996176;28;20518;-52
2021/11/10 07:48:47;;;;;;;10.63;6.90;;;6.80;99.90;;;;;;4998558;28;20444;-50
2021/11/10 07:51:13;;;;;;;14.63;8.40;;;6.90;99.90;;;;;;5000221;28;20441;-52
2021/11/10 07:53:39;;;;;;;13.63;8.63;;;7.00;99.90;;;;;;4998404;28;20497;-51
2021/11/10 07:56:06;;;;;;;13.23;7.40;;;7.00;99.90;;;;;;4997120;28;20449;-55
2021/11/10 07:58:33;;;;;;;8.67;6.30;;;7.10;99.90;;;;;;4995512;28;20443;-52
2021/11/10 08:00:59;;;;;;;11.73;8.00;;;7.20;99.90;;;;;;4982478;28;20582;-48
2021/11/10 08:03:25;;;;;;;10.13;7.30;;;7.40;99.90;;;;;;4985080;28;20474;-53
2021/11/10 08:05:50;;;;;;;12.93;8.30;;;7.30;99.90;;;;;;4995982;28;20955;-51
2021/11/10 08:08:17;;;;;;;14.50;8.80;;;7.10;99.90;;;;;;4998986;28;20208;-49
2021/11/10 08:10:43;;;;;;;11.43;8.80;;;7.30;99.90;;;;;;4997132;28;20455;-50
2021/11/10 08:13:10;;;;;;;10.30;8.33;;;7.30;99.90;;;;;;4989343;28;20670;-52
2021/11/10 08:15:36;;;;;;;14.20;8.77;;;6.90;99.90;;;;;;4995696;28;20494;-51
2021/11/10 08:18:03;;;;;;;15.03;9.23;;;6.70;99.90;;;;;;4997618;28;20498;-52
2021/11/10 08:20:29;;;;;;;12.13;8.03;;;6.80;99.90;;;;;;4998864;28;20499;-51
2021/11/10 08:22:55;;;;;;;14.73;9.70;;;6.80;99.90;;;;;;4995854;28;20464;-54
2021/11/10 08:25:20;;;;;;;14.13;8.33;;;6.50;99.90;;;;;;4996437;28;20886;-51
2021/11/10 08:27:46;;;;;;;12.50;9.27;;;6.60;99.90;;;;;;4995165;28;20537;-53
2021/11/10 08:30:15;;;;;;;15.57;8.40;;;6.80;99.90;;;;;;4997225;28;20287;-52
2021/11/10 08:32:41;;;;;;;16.67;9.20;;;7.00;99.90;;;;;;4993904;28;20494;-50
2021/11/10 08:35:08;;;;;;;9.27;7.80;;;7.20;99.90;;;;;;4995936;28;20485;-52
2021/11/10 08:37:34;;;;;;;22.40;9.47;;;7.10;99.90;;;;;;4998023;28;20859;-53
2021/11/10 08:40:00;;;;;;;14.17;8.87;;;7.00;99.90;;;;;;4994291;28;20451;-55
2021/11/10 08:42:33;;;;;;;10.03;8.63;;;6.50;99.90;;;;;;4997590;28;20494;-52
2021/11/10 08:45:20;;;;;;;14.23;8.83;;;6.80;99.90;;;;;;4996384;28;20499;-51
2021/11/10 08:47:49;;;;;;;13.57;9.93;;;6.80;99.90;;;;;;4986878;28;20992;-50
2021/11/10 08:50:17;;;;;;;11.13;8.27;;;6.50;99.90;;;;;;5002916;28;20450;-49
2021/11/10 08:52:44;;;;;;;13.50;9.47;;;6.60;99.90;;;;;;4998566;28;20435;-51
2021/11/10 08:55:12;;;;;;;13.20;9.50;;;6.70;99.90;;;;;;5002761;28;20512;-51
2021/11/10 08:57:39;;;;;;;11.57;9.07;;;6.50;99.90;;;;;;5008869;28;20848;-52
2021/11/10 09:00:08;;;;;;;15.93;8.50;;;6.50;99.90;;;;;;5002650;28;20820;-51
2021/11/10 09:02:33;;;;;;;15.40;8.33;;;6.40;99.90;;;;;;5002080;28;20424;-49
2021/11/10 09:04:59;;;;;;;16.30;9.00;;;6.30;99.90;;;;;;4999386;28;20462;-52
2021/11/10 09:07:25;;;;;;;10.33;9.07;;;6.30;99.90;;;;;;4991851;28;20205;-52
2021/11/10 09:09:51;;;;;;;13.70;9.40;;;6.30;99.90;;;;;;5004651;28;20215;-48
2021/11/10 09:12:16;;;;;;;12.17;8.90;;;6.40;99.90;;;;;;5003761;28;20205;-50
2021/11/10 09:14:42;;;;;;;13.90;9.80;;;6.30;99.90;;;;;;4999341;28;20271;-54
2021/11/10 09:17:08;;;;;;;14.10;10.10;;;6.20;99.90;;;;;;5004453;28;20184;-49
2021/11/10 09:19:34;;;;;;;15.33;10.33;;;6.30;99.90;;;;;;5001988;28;20232;-51
2021/11/10 09:22:00;;;;;;;15.93;10.10;;;6.40;99.90;;;;;;5003444;28;20467;-52
2021/11/10 09:24:25;;;;;;;12.60;10.50;;;6.70;99.90;;;;;;4999743;28;20181;-48
2021/11/10 09:26:51;;;;;;;15.70;10.03;;;6.90;99.90;;;;;;5001563;28;20220;-51
2021/11/10 09:29:19;;;;;;;16.83;11.20;;;7.10;99.90;;;;;;4987980;28;20217;-50
2021/11/10 09:31:45;;;;;;;24.17;11.17;;;6.90;99.90;;;;;;5000204;28;20191;-51
2021/11/10 09:34:12;;;;;;;15.37;10.03;;;7.20;99.90;;;;;;4998843;28;20526;-50
2021/11/10 09:36:46;;;;;;;13.27;10.57;;;7.00;99.90;;;;;;5005073;28;20185;-49
2021/11/10 09:39:17;;;;;;;17.10;9.83;;;7.00;99.90;;;;;;5000938;28;20436;-49
2021/11/10 09:41:47;;;;;;;15.43;10.90;;;7.10;99.90;;;;;;4997998;28;20412;-51
2021/11/10 09:44:13;;;;;;;14.23;9.80;;;7.20;99.90;;;;;;5000009;28;20811;-54
2021/11/10 09:46:39;;;;;;;12.50;10.00;;;7.10;99.90;;;;;;4999259;28;20861;-48
2021/11/10 09:49:06;;;;;;;16.90;9.23;;;7.20;99.90;;;;;;5001331;28;20625;-52
2021/11/10 09:51:33;;;;;;;12.80;10.67;;;7.40;99.90;;;;;;4999773;28;20451;-53
2021/11/10 09:54:01;;;;;;;17.43;10.50;;;7.50;99.90;;;;;;5000636;28;20432;-51
2021/11/10 09:56:27;;;;;;;15.73;10.30;;;7.30;99.90;;;;;;4999349;28;20435;-51
2021/11/10 09:58:53;;;;;;;16.93;9.87;;;7.70;99.90;;;;;;4999644;28;20515;-52
2021/11/10 10:01:20;;;;;;;14.83;10.30;;;8.10;99.90;;;;;;4995783;28;20915;-52
2021/11/10 10:03:47;;;;;;;19.03;12.07;;;8.20;99.90;;;;;;4994761;28;20229;-52
2021/11/10 10:06:16;;;;;;;12.83;11.07;;;8.00;99.90;;;;;;4997429;28;20503;-49
2021/11/10 10:08:45;;;;;;;16.63;11.90;;;8.40;99.90;;;;;;4980099;28;20436;-53
2021/11/10 10:11:11;;;;;;;16.90;10.87;;;8.50;99.90;;;;;;4986677;28;20537;-55
2021/11/10 10:13:37;;;;;;;15.60;10.90;;;8.20;99.90;;;;;;4995542;28;20965;-52
2021/11/10 10:16:03;;;;;;;17.87;11.70;;;8.30;99.90;;;;;;4992013;28;20534;-54
2021/11/10 10:18:30;;;;;;;15.20;11.33;;;8.60;99.90;;;;;;4993412;28;20694;-50
2021/11/10 10:20:57;;;;;;;14.10;11.00;;;8.50;99.90;;;;;;4991383;28;21006;-52
2021/11/10 10:23:27;;;;;;;12.57;10.20;;;8.80;99.90;;;;;;4995999;28;20620;-53
2021/11/10 10:25:53;;;;;;;14.40;10.93;;;9.00;99.90;;;;;;4997026;28;20468;-53
2021/11/10 10:28:31;;;;;;;13.23;10.87;;;9.10;99.90;;;;;;4997967;28;20432;-52
2021/11/10 10:31:02;;;;;;;17.33;11.80;;;9.10;99.90;;;;;;4998663;28;20216;-50
2021/11/10 10:33:32;;;;;;;12.50;9.80;;;9.10;99.90;;;;;;4996653;28;20470;-53
2021/11/10 10:36:07;;;;;;;14.10;11.10;;;9.00;99.90;;;;;;4994892;28;20435;-52
2021/11/10 10:38:41;;;;;;;15.70;10.37;;;8.80;99.90;;;;;;4996145;28;21291;-52
2021/11/10 10:41:08;;;;;;;14.20;10.80;;;8.90;99.90;;;;;;4992628;28;22175;-50
2021/11/10 10:43:47;;;;;;;14.60;11.30;;;8.90;99.90;;;;;;4994613;28;20429;-52
2021/11/10 10:46:13;;;;;;;14.10;11.30;;;8.90;99.90;;;;;;4996934;28;20514;-49
2021/11/10 10:48:39;;;;;;;14.07;10.83;;;8.70;99.90;;;;;;4996119;28;20440;-53
2021/11/10 10:51:13;;;;;;;20.07;11.67;;;8.70;99.90;;;;;;4996013;28;20881;-50
2021/11/10 10:53:47;;;;;;;14.00;12.10;;;8.80;99.90;;;;;;4995735;28;20192;-49
2021/11/10 10:56:33;;;;;;;14.70;11.50;;;8.90;99.90;;;;;;4988608;28;20765;-51
2021/11/10 10:59:01;;;;;;;32.07;11.93;;;9.10;99.90;;;;;;4995952;28;20432;-49
2021/11/10 11:01:38;;;;;;;18.60;12.43;;;9.20;99.90;;;;;;4997266;28;20475;-51
2021/11/10 11:04:09;;;;;;;18.60;11.30;;;9.40;99.90;;;;;;4997854;28;20920;-49
2021/11/10 11:06:39;;;;;;;15.80;12.50;;;9.50;99.90;;;;;;4993215;28;20761;-51
2021/11/10 11:09:12;;;;;;;14.97;12.13;;;9.50;99.90;;;;;;4996197;28;20428;-54
2021/11/10 11:11:43;;;;;;;17.13;13.17;;;9.60;99.90;;;;;;4995405;28;20431;-49
2021/11/10 11:15:02;;;;;;;15.27;11.50;;;9.80;99.90;;;;;;4997384;28;20456;-53
2021/11/10 11:17:14;;;;;;;19.90;12.43;;;9.90;99.90;;;;;;4983841;28;20974;-50
2021/11/10 11:19:59;;;;;;;16.97;12.70;;;10.00;99.90;;;;;;4991713;28;21403;-49
2021/11/10 11:22:28;;;;;;;15.60;12.43;;;9.90;99.90;;;;;;4990885;28;20533;-53
2021/11/10 11:24:54;;;;;;;14.60;13.03;;;10.00;99.90;;;;;;4996910;28;20432;-54
2021/11/10 11:27:25;;;;;;;16.70;11.90;;;10.10;99.90;;;;;;4995461;28;20902;-53
2021/11/10 11:30:12;;;;;;;18.83;12.60;;;10.30;99.90;;;;;;4998193;28;20458;-53
2021/11/10 11:32:44;;;;;;;14.37;12.10;;;10.50;99.90;;;;;;4992235;28;20525;-50
2021/11/10 11:35:25;;;;;;;17.57;12.63;;;10.40;99.90;;;;;;4998759;28;20428;-50
2021/11/10 11:37:52;;;;;;;21.23;12.27;;;10.40;99.90;;;;;;4993476;28;20468;-54
2021/11/10 11:40:19;;;;;;;16.77;12.53;;;10.50;99.90;;;;;;4997615;28;20472;-50
2021/11/10 11:42:47;;;;;;;22.03;12.97;;;10.70;99.90;;;;;;4995339;28;20531;-51
2021/11/10 11:45:15;;;;;;;16.33;13.40;;;10.90;99.90;;;;;;4994188;28;20436;-50
2021/11/10 11:47:42;;;;;;;19.13;13.50;;;11.10;99.90;;;;;;4993698;28;20498;-47
2021/11/10 11:50:12;;;;;;;15.37;12.07;;;10.90;99.90;;;;;;4993621;28;20514;-49
2021/11/10 11:52:38;;;;;;;18.20;12.83;;;11.00;99.90;;;;;;4995268;28;20432;-52
2021/11/10 11:55:27;;;;;;;17.90;13.20;;;11.00;99.90;;;;;;4998284;28;20499;-49
2021/11/10 11:58:17;;;;;;;16.30;12.63;;;11.10;99.90;;;;;;4995619;28;20455;-51
2021/11/10 12:00:45;;;;;;;13.53;12.10;;;11.20;99.90;;;;;;4987950;28;20464;-48
2021/11/10 12:03:25;;;;;;;17.10;12.03;;;11.30;99.90;;;;;;4995695;28;20432;-50
2021/11/10 12:06:01;;;;;;;20.90;13.30;;;11.50;99.90;;;;;;4996814;28;20580;-51
2021/11/10 12:08:41;;;;;;;18.80;13.50;;;11.50;99.90;;;;;;4995674;28;20421;-48
2021/11/10 12:11:19;;;;;;;13.87;12.40;;;11.90;99.90;;;;;;4987391;28;20502;-48
2021/11/10 12:14:10;;;;;;;18.93;14.00;;;11.90;99.90;;;;;;4993294;28;20819;-50
2021/11/10 12:16:45;;;;;;;17.03;13.20;;;11.70;99.90;;;;;;4992776;28;20771;-52
2021/11/10 12:19:11;;;;;;;18.13;13.03;;;11.80;99.90;;;;;;4995202;28;20514;-49
2021/11/10 12:21:47;;;;;;;21.60;13.53;;;11.50;99.90;;;;;;4991253;28;20452;-53
2021/11/10 12:24:25;;;;;;;17.60;12.30;;;11.20;99.90;;;;;;4983824;28;20439;-53
2021/11/10 12:27:11;;;;;;;21.57;13.60;;;11.40;99.90;;;;;;4994214;28;20467;-53
2021/11/10 12:29:59;;;;;;;15.90;12.07;;;11.50;99.90;;;;;;4966358;28;20463;-51
2021/11/10 12:32:30;;;;;;;20.20;13.00;;;11.60;99.90;;;;;;4995730;28;20861;-53
2021/11/10 12:34:58;;;;;;;16.60;12.77;;;11.60;99.90;;;;;;4989102;28;20468;-48
2021/11/10 12:37:40;;;;;;;13.50;12.10;;;11.40;99.90;;;;;;4993742;28;20927;-49
2021/11/10 12:40:21;;;;;;;20.50;13.67;;;11.20;99.90;;;;;;4993583;28;20456;-52
2021/11/10 12:42:58;;;;;;;18.77;14.10;;;11.30;99.90;;;;;;4994640;28;20436;-53
2021/11/10 12:45:37;;;;;;;26.43;13.00;;;11.10;99.90;;;;;;4994680;28;20443;-50
2021/11/10 12:48:09;;;;;;;20.07;15.00;;;10.60;99.90;;;;;;4995154;28;20433;-49
2021/11/10 12:50:50;;;;;;;23.83;12.63;;;10.50;99.90;;;;;;4991862;28;20833;-52